createdAt,value
2019-03-16T00:01:04.198Z,2.37
2019-03-16T00:03:51.233Z,2.40
2019-03-16T00:06:38.537Z,2.03
2019-03-16T00:09:26.138Z,2.67
2019-03-16T00:12:13.785Z,2.07
2019-03-16T00:15:01.427Z,2.77
2019-03-16T00:17:48.367Z,2.30
2019-03-16T00:20:35.920Z,2.20
2019-03-16T00:23:23.106Z,2.40
2019-03-16T00:26:10.428Z,2.70
2019-03-16T00:28:57.939Z,2.83
2019-03-16T00:31:45.244Z,3.07
2019-03-16T00:34:32.387Z,3.10
2019-03-16T00:37:19.610Z,2.90
2019-03-16T00:40:07.323Z,2.83
2019-03-16T00:42:54.851Z,2.57
2019-03-16T00:45:42.518Z,2.70
2019-03-16T00:48:29.649Z,2.50
2019-03-16T00:51:17.279Z,3.50
2019-03-16T00:54:04.887Z,3.40
2019-03-16T00:56:52.491Z,3.80
2019-03-16T00:59:39.453Z,4.80
2019-03-16T01:02:27.626Z,4.50
2019-03-16T01:05:15.364Z,4.90
2019-03-16T01:08:02.957Z,5.10
2019-03-16T01:10:50.476Z,5.47
2019-03-16T01:13:38.002Z,6.53
2019-03-16T01:16:25.566Z,6.50
2019-03-16T01:19:12.727Z,4.53
2019-03-16T01:21:59.688Z,3.90
2019-03-16T01:24:46.995Z,3.20
2019-03-16T01:27:34.454Z,3.57
2019-03-16T01:30:21.597Z,3.37
2019-03-16T01:33:09.151Z,3.50
2019-03-16T01:35:56.404Z,3.53
2019-03-16T01:38:43.755Z,3.13
2019-03-16T01:41:31.004Z,3.13
2019-03-16T01:44:18.832Z,3.17
2019-03-16T01:47:05.814Z,3.70
2019-03-16T01:49:53.472Z,3.47
2019-03-16T01:52:41.010Z,3.40
2019-03-16T01:55:28.003Z,3.63
2019-03-16T01:58:15.483Z,3.23
2019-03-16T02:01:02.559Z,3.63
2019-03-16T02:03:50.204Z,3.53
2019-03-16T02:06:37.787Z,4.00
2019-03-16T02:09:25.282Z,3.50
2019-03-16T02:12:12.449Z,3.03
2019-03-16T02:14:59.931Z,3.00
2019-03-16T02:17:46.942Z,3.00
2019-03-16T02:20:34.318Z,2.60
2019-03-16T02:23:22.100Z,2.13
2019-03-16T02:26:09.339Z,1.73
2019-03-16T02:28:56.352Z,1.80
2019-03-16T02:31:44.108Z,1.80
2019-03-16T02:34:31.586Z,1.47
2019-03-16T02:37:19.185Z,1.40
2019-03-16T02:40:06.747Z,1.10
2019-03-16T02:42:54.094Z,0.97
2019-03-16T02:45:41.600Z,0.70
2019-03-16T02:48:29.219Z,0.73
2019-03-16T02:51:16.184Z,0.50
2019-03-16T02:54:03.727Z,0.50
2019-03-16T02:56:51.259Z,0.40
2019-03-16T02:59:38.863Z,0.50
2019-03-16T03:02:26.486Z,0.40
2019-03-16T03:05:14.129Z,0.33
2019-03-16T03:08:01.629Z,0.40
2019-03-16T03:10:49.276Z,0.30
2019-03-16T03:13:36.562Z,0.47
2019-03-16T03:16:24.110Z,0.50
2019-03-16T03:19:11.702Z,0.50
2019-03-16T03:21:58.774Z,0.40
2019-03-16T03:24:45.763Z,0.43
2019-03-16T03:27:33.217Z,0.60
2019-03-16T03:30:20.826Z,0.60
2019-03-16T03:33:08.333Z,0.40
2019-03-16T03:35:55.897Z,0.50
2019-03-16T03:38:43.415Z,0.50
2019-03-16T03:41:31.095Z,0.60
2019-03-16T03:44:18.587Z,0.50
2019-03-16T03:47:05.534Z,0.33
2019-03-16T03:49:52.812Z,0.40
2019-03-16T03:52:40.115Z,0.40
2019-03-16T03:55:27.669Z,0.40
2019-03-16T03:58:15.249Z,0.40
2019-03-16T04:01:02.892Z,0.50
2019-03-16T04:03:50.690Z,0.60
2019-03-16T04:06:38.019Z,0.40
2019-03-16T04:09:25.649Z,0.50
2019-03-16T04:41:02.957Z,0.50
2019-03-16T04:43:54.263Z,0.50
2019-03-16T04:50:13.512Z,0.40
2019-03-16T04:53:01.316Z,0.43
2019-03-16T04:55:55.863Z,0.50
2019-03-16T04:58:51.545Z,0.60
2019-03-16T05:01:40.271Z,0.80
2019-03-16T05:04:41.644Z,0.90
2019-03-16T05:07:35.524Z,0.90
2019-03-16T05:10:13.371Z,0.97
2019-03-16T05:13:01.601Z,0.80
2019-03-16T05:15:51.033Z,1.00
2019-03-16T05:18:39.814Z,0.80
2019-03-16T05:21:27.752Z,0.70
2019-03-16T05:24:15.170Z,0.90
2019-03-16T05:27:06.979Z,0.70
2019-03-16T05:29:58.393Z,0.70
2019-03-16T05:33:13.726Z,0.60
2019-03-16T05:36:05.465Z,0.80
2019-03-16T05:39:12.599Z,0.70
2019-03-16T05:42:01.191Z,0.70
2019-03-16T05:44:51.528Z,0.60
2019-03-16T05:47:46.447Z,0.60
2019-03-16T05:50:34.708Z,0.50
2019-03-16T05:53:23.384Z,0.67
2019-03-16T05:56:11.639Z,0.50
2019-03-16T05:58:59.493Z,0.60
2019-03-16T06:05:31.944Z,0.50
2019-03-16T06:08:19.564Z,0.40
2019-03-16T06:11:07.795Z,0.50
2019-03-16T06:13:58.895Z,0.40
2019-03-16T06:16:59.798Z,0.40
2019-03-16T06:19:47.731Z,0.40
2019-03-16T06:22:38.676Z,0.30
2019-03-16T06:25:44.695Z,0.30
2019-03-16T06:28:35.628Z,0.30
2019-03-16T06:31:25.312Z,0.23
2019-03-16T06:34:13.863Z,0.17
2019-03-16T06:37:02.780Z,0.30
2019-03-16T06:39:50.788Z,0.33
2019-03-16T06:42:38.843Z,0.30
2019-03-16T06:45:27.123Z,0.40
2019-03-16T06:48:14.543Z,0.40
2019-03-16T06:51:02.355Z,0.20
2019-03-16T06:53:50.205Z,0.47
2019-03-16T06:56:38.280Z,0.30
2019-03-16T06:59:25.767Z,0.50
2019-03-16T07:02:13.048Z,0.40
2019-03-16T07:05:00.936Z,0.30
2019-03-16T07:07:48.532Z,0.30
2019-03-16T07:10:36.139Z,0.40
2019-03-16T07:13:24.096Z,0.50
2019-03-16T07:16:11.720Z,0.50
2019-03-16T07:18:59.451Z,0.47
2019-03-16T07:21:47.683Z,0.40
2019-03-16T07:24:35.227Z,0.40
2019-03-16T07:27:26.392Z,0.50
2019-03-16T07:30:12.447Z,0.40
2019-03-16T07:33:00.312Z,0.40
2019-03-16T07:35:48.244Z,0.50
2019-03-16T07:38:39.398Z,0.47
2019-03-16T07:41:29.066Z,0.27
2019-03-16T07:44:17.073Z,0.47
2019-03-16T07:47:04.865Z,0.40
2019-03-16T07:49:52.496Z,0.40
2019-03-16T07:52:40.293Z,0.30
2019-03-16T07:55:28.446Z,0.33
2019-03-16T07:58:16.109Z,0.33
2019-03-16T08:01:03.846Z,0.30
2019-03-16T08:03:51.242Z,0.40
2019-03-16T08:06:39.295Z,0.20
2019-03-16T08:09:27.708Z,0.30
2019-03-16T08:12:14.976Z,0.30
2019-03-16T08:15:03.118Z,0.30
2019-03-16T08:17:51.120Z,0.30
2019-03-16T08:20:38.946Z,0.30
2019-03-16T08:23:26.672Z,0.30
2019-03-16T08:26:14.389Z,0.27
2019-03-16T08:29:02.723Z,0.40
2019-03-16T08:31:50.307Z,0.30
2019-03-16T08:34:37.919Z,0.57
2019-03-16T08:37:26.038Z,0.33
2019-03-16T08:40:13.533Z,0.50
2019-03-16T08:43:01.078Z,0.40
2019-03-16T08:45:49.024Z,0.30
2019-03-16T08:48:36.870Z,0.30
2019-03-16T08:51:24.473Z,0.40
2019-03-16T08:54:12.122Z,0.30
2019-03-16T08:57:00.107Z,0.33
2019-03-16T08:59:47.597Z,0.23
2019-03-16T09:02:35.158Z,0.30
2019-03-16T09:05:23.054Z,0.30
2019-03-16T09:08:10.802Z,0.30
2019-03-16T09:10:58.883Z,0.30
2019-03-16T09:13:46.864Z,0.30
2019-03-16T09:16:35.022Z,0.40
2019-03-16T09:19:22.526Z,0.30
2019-03-16T09:22:10.323Z,0.40
2019-03-16T09:24:57.929Z,0.33
2019-03-16T09:27:45.818Z,0.40
2019-03-16T09:30:32.837Z,0.40
2019-03-16T09:33:20.094Z,0.43
2019-03-16T09:36:08.147Z,0.30
2019-03-16T09:38:55.528Z,0.37
2019-03-16T09:41:44.082Z,0.30
2019-03-16T09:44:31.837Z,0.50
2019-03-16T09:47:19.032Z,0.40
2019-03-16T09:50:07.532Z,0.40
2019-03-16T09:52:55.282Z,0.30
2019-03-16T09:55:43.243Z,0.30
2019-03-16T09:58:31.707Z,0.33
2019-03-16T10:01:20.115Z,0.70
2019-03-16T10:04:09.276Z,0.50
2019-03-16T10:06:58.983Z,0.40
2019-03-16T10:09:46.787Z,0.50
2019-03-16T10:12:33.976Z,0.37
2019-03-16T10:15:22.047Z,0.50
2019-03-16T10:18:09.978Z,0.47
2019-03-16T10:20:57.703Z,0.40
2019-03-16T10:23:45.446Z,0.57
2019-03-16T10:26:33.429Z,0.30
2019-03-16T10:29:21.450Z,0.43
2019-03-16T10:32:08.905Z,0.50
2019-03-16T10:34:57.066Z,0.40
2019-03-16T10:37:45.011Z,0.40
2019-03-16T10:40:32.973Z,0.50
2019-03-16T10:43:20.846Z,0.40
2019-03-16T10:46:08.891Z,0.60
2019-03-16T10:48:56.918Z,0.50
2019-03-16T10:51:44.536Z,1.67
2019-03-16T10:54:32.545Z,1.20
2019-03-16T10:57:20.672Z,0.63
2019-03-16T11:00:08.447Z,0.50
2019-03-16T11:02:56.123Z,0.40
2019-03-16T11:05:44.346Z,0.43
2019-03-16T11:08:32.218Z,0.40
2019-03-16T11:11:20.414Z,0.42
2019-03-16T11:14:07.607Z,0.43
2019-03-16T11:16:55.004Z,0.40
2019-03-16T11:19:43.175Z,0.40
2019-03-16T11:22:31.913Z,0.60
2019-03-16T11:25:26.007Z,0.47
2019-03-16T11:28:13.701Z,0.37
2019-03-16T11:31:23.733Z,0.50
2019-03-16T11:34:17.788Z,0.57
2019-03-16T11:37:05.630Z,0.40
2019-03-16T11:39:53.379Z,0.40
2019-03-16T11:42:53.492Z,0.50
2019-03-16T11:45:31.695Z,0.50
2019-03-16T11:48:28.689Z,0.50
2019-03-16T11:51:16.940Z,0.53
2019-03-16T11:54:11.757Z,0.67
2019-03-16T11:57:00.068Z,0.60
2019-03-16T11:59:48.257Z,0.40
2019-03-16T12:02:36.619Z,0.50
2019-03-16T12:05:24.548Z,0.50
2019-03-16T12:08:15.186Z,0.50
2019-03-16T12:11:03.258Z,0.50
2019-03-16T12:13:51.273Z,0.63
2019-03-16T12:16:39.101Z,0.60
2019-03-16T12:19:29.230Z,0.50
2019-03-16T12:22:16.064Z,0.50
2019-03-16T12:28:39.380Z,0.60
2019-03-16T12:31:27.314Z,0.50
2019-03-16T12:34:14.776Z,0.70
2019-03-16T12:37:02.643Z,0.57
2019-03-16T12:39:50.744Z,0.50
2019-03-16T12:42:43.633Z,0.53
2019-03-16T12:45:27.938Z,0.40
2019-03-16T12:48:15.794Z,0.50
2019-03-16T12:51:03.418Z,0.50
2019-03-16T12:53:51.376Z,0.40
2019-03-16T12:56:39.170Z,0.40
2019-03-16T12:59:26.945Z,0.30
2019-03-16T13:02:14.838Z,0.37
2019-03-16T13:05:03.171Z,0.40
2019-03-16T13:07:50.757Z,0.40
2019-03-16T13:10:38.397Z,0.23
2019-03-16T13:13:26.819Z,0.30
2019-03-16T13:16:14.068Z,0.40
2019-03-16T13:19:01.679Z,0.30
2019-03-16T13:21:49.160Z,0.40
2019-03-16T13:24:37.110Z,0.40
2019-03-16T13:27:24.516Z,0.50
2019-03-16T13:30:13.078Z,0.50
2019-03-16T13:33:00.631Z,0.40
2019-03-16T13:35:48.514Z,0.30
2019-03-16T13:38:36.738Z,0.30
2019-03-16T13:41:24.773Z,0.40
2019-03-16T13:44:12.667Z,0.30
2019-03-16T13:47:00.598Z,0.30
2019-03-16T13:49:48.935Z,0.20
2019-03-16T13:52:36.865Z,0.33
2019-03-16T13:55:24.358Z,0.20
2019-03-16T13:58:12.268Z,0.30
2019-03-16T14:00:59.625Z,0.20
2019-03-16T14:03:48.889Z,0.30
2019-03-16T14:06:36.891Z,0.30
2019-03-16T14:09:37.334Z,0.30
2019-03-16T14:15:55.528Z,0.30
2019-03-16T14:18:47.887Z,0.50
2019-03-16T14:21:38.402Z,0.60
2019-03-16T14:24:26.483Z,0.80
2019-03-16T14:27:15.125Z,0.70
2019-03-16T14:30:03.594Z,0.60
2019-03-16T14:32:59.181Z,0.80
2019-03-16T14:35:47.234Z,1.10
2019-03-16T14:38:52.568Z,0.80
2019-03-16T14:41:40.791Z,0.70
2019-03-16T14:44:31.075Z,0.70
2019-03-16T14:47:18.902Z,0.90
2019-03-16T14:50:07.681Z,0.53
2019-03-16T14:52:55.883Z,0.40
2019-03-16T14:55:44.789Z,1.10
2019-03-16T14:58:56.255Z,0.50
2019-03-16T15:02:22.501Z,0.50
2019-03-16T15:05:13.790Z,0.57
2019-03-16T15:08:21.799Z,0.50
2019-03-16T15:11:11.164Z,0.60
2019-03-16T15:14:00.728Z,0.30
2019-03-16T15:16:48.657Z,0.90
2019-03-16T15:19:38.484Z,0.20
2019-03-16T15:22:25.929Z,0.50
2019-03-16T15:25:14.578Z,0.30
2019-03-16T15:28:04.549Z,0.20
2019-03-16T15:30:53.419Z,0.60
2019-03-16T15:40:22.595Z,0.20
2019-03-16T15:43:30.070Z,0.20
2019-03-16T15:46:23.935Z,0.20
2019-03-16T15:52:43.969Z,0.20
2019-03-16T15:59:02.478Z,0.33
2019-03-16T16:05:07.343Z,0.30
2019-03-16T16:08:08.029Z,0.40
2019-03-16T16:11:01.385Z,0.30
2019-03-16T16:17:55.057Z,0.20
2019-03-16T16:20:42.882Z,0.30
2019-03-16T16:23:32.347Z,0.60
2019-03-16T16:26:31.945Z,0.47
2019-03-16T16:29:20.280Z,0.60
2019-03-16T16:32:10.665Z,0.50
2019-03-16T16:37:56.553Z,0.37
2019-03-16T16:40:47.086Z,0.47
2019-03-16T16:43:35.347Z,0.50
2019-03-16T16:46:29.548Z,0.60
2019-03-16T16:49:57.082Z,0.50
2019-03-16T16:52:48.696Z,0.40
2019-03-16T16:55:41.843Z,0.43
2019-03-16T16:58:26.097Z,0.50
2019-03-16T17:01:28.280Z,0.40
2019-03-16T17:07:52.329Z,0.73
2019-03-16T17:10:40.302Z,0.90
2019-03-16T17:13:58.652Z,0.40
2019-03-16T17:16:46.781Z,0.80
2019-03-16T17:19:35.846Z,0.50
2019-03-16T17:22:26.898Z,0.47
2019-03-16T17:28:46.193Z,0.60
2019-03-16T17:34:43.867Z,0.50
2019-03-16T17:37:35.566Z,0.30
2019-03-16T17:40:27.276Z,0.30
2019-03-16T17:47:11.190Z,0.40
2019-03-16T17:49:36.095Z,0.40
2019-03-16T17:52:25.862Z,0.40
2019-03-16T17:55:17.762Z,0.40
2019-03-16T17:58:16.210Z,0.40
2019-03-16T18:01:04.488Z,0.40
2019-03-16T18:04:06.132Z,0.47
2019-03-16T18:06:56.619Z,0.50
2019-03-16T18:10:01.760Z,0.50
2019-03-16T18:12:55.604Z,0.30
2019-03-16T18:15:46.300Z,0.40
2019-03-16T18:18:35.962Z,0.53
2019-03-16T18:21:33.311Z,0.40
2019-03-16T18:24:48.098Z,0.40
2019-03-16T18:27:48.257Z,0.50
2019-03-16T18:30:40.749Z,0.40
2019-03-16T18:33:41.403Z,0.33
2019-03-16T18:36:32.737Z,0.30
2019-03-16T18:39:28.118Z,0.47
2019-03-16T18:45:53.713Z,0.53
2019-03-16T18:48:45.220Z,0.50
2019-03-16T18:51:40.056Z,0.70
2019-03-16T18:54:37.656Z,0.50
2019-03-16T18:57:29.751Z,0.70
2019-03-16T19:00:19.860Z,0.53
2019-03-16T19:03:08.157Z,0.93
2019-03-16T19:05:55.612Z,0.63
2019-03-16T19:08:50.444Z,0.60
2019-03-16T19:12:06.804Z,0.70
2019-03-16T19:14:54.811Z,0.57
2019-03-16T19:17:43.641Z,0.80
2019-03-16T19:23:42.029Z,0.90
2019-03-16T19:26:36.586Z,0.50
2019-03-16T19:29:31.396Z,0.40
2019-03-16T19:32:34.511Z,0.50
2019-03-16T19:35:22.710Z,0.63
2019-03-16T19:42:02.835Z,0.50
2019-03-16T19:44:50.872Z,0.50
2019-03-16T19:51:12.876Z,0.70
2019-03-16T19:54:00.899Z,0.77
2019-03-16T19:56:50.561Z,0.60
2019-03-16T19:59:47.203Z,0.53
2019-03-16T20:02:48.575Z,0.80
2019-03-16T20:05:29.918Z,1.00
2019-03-16T20:08:18.645Z,1.10
2019-03-16T20:11:28.256Z,1.20
2019-03-16T20:14:15.297Z,0.90
2019-03-16T20:17:03.733Z,1.80
2019-03-16T20:19:52.275Z,3.90
2019-03-16T20:22:40.509Z,2.20
2019-03-16T20:25:32.538Z,2.13
2019-03-16T20:28:26.199Z,2.50
2019-03-16T20:31:17.478Z,2.58
2019-03-16T20:34:06.353Z,2.30
2019-03-16T20:40:23.961Z,1.60
2019-03-16T20:43:11.838Z,2.23
2019-03-16T20:46:00.434Z,2.00
2019-03-16T20:48:48.271Z,2.07
2019-03-16T20:51:42.939Z,2.07
2019-03-16T20:54:34.260Z,2.03
2019-03-16T20:57:22.476Z,2.27
2019-03-16T21:00:17.559Z,2.40
2019-03-16T21:03:15.475Z,2.17
2019-03-16T21:06:01.107Z,2.10
2019-03-16T21:08:48.940Z,2.20
2019-03-16T21:11:37.965Z,2.30
2019-03-16T21:14:28.995Z,2.50
2019-03-16T21:17:18.325Z,2.70
2019-03-16T21:20:08.189Z,2.67
2019-03-16T21:22:56.160Z,2.53
2019-03-16T21:25:45.417Z,2.40
2019-03-16T21:28:37.186Z,2.23
2019-03-16T21:31:24.654Z,2.37
2019-03-16T21:34:15.610Z,2.10
2019-03-16T21:37:04.057Z,2.27
2019-03-16T21:43:27.024Z,1.90
2019-03-16T21:46:26.488Z,2.03
2019-03-16T21:49:33.130Z,1.77
2019-03-16T21:52:22.492Z,1.53
2019-03-16T21:58:25.001Z,1.60
2019-03-16T22:01:13.133Z,1.70
2019-03-16T22:04:19.994Z,1.43
2019-03-16T22:07:08.838Z,1.70
2019-03-16T22:13:04.415Z,2.10
2019-03-16T22:15:52.687Z,2.40
2019-03-16T22:18:41.315Z,2.10
2019-03-16T22:21:29.469Z,2.10
2019-03-16T22:24:17.385Z,2.30
2019-03-16T22:27:08.343Z,2.03
2019-03-16T22:30:01.223Z,1.80
2019-03-16T22:36:00.524Z,1.90
2019-03-16T22:38:51.838Z,1.83
2019-03-16T22:41:39.223Z,1.90
2019-03-16T22:44:28.616Z,1.90
2019-03-16T22:47:18.795Z,1.97
2019-03-16T22:51:01.661Z,1.93
2019-03-16T22:52:59.028Z,2.13
2019-03-16T22:59:06.329Z,2.67
2019-03-16T23:01:54.229Z,2.20
2019-03-16T23:04:45.564Z,2.40
2019-03-16T23:14:09.213Z,2.00
2019-03-16T23:17:07.474Z,2.03
2019-03-16T23:20:01.455Z,1.83
2019-03-16T23:22:49.347Z,2.10
2019-03-16T23:25:38.121Z,1.83
2019-03-16T23:28:25.752Z,1.77
2019-03-16T23:31:16.822Z,1.73
2019-03-16T23:37:33.485Z,1.80
2019-03-16T23:40:21.460Z,1.90
2019-03-16T23:43:18.870Z,1.97
2019-03-16T23:46:14.187Z,2.27
2019-03-16T23:49:04.565Z,2.27
2019-03-16T23:51:52.630Z,2.10
2019-03-16T23:54:40.447Z,2.00
2019-03-16T23:57:31.897Z,2.27
